^^
MeteoGriva-Weather Station Historical Data
Daily Summary for September 22, 2020 Units:  Metric    English   Both
Daily Weekly Monthly Yearly Custom
  High: Low: Average:
Temperature: 12 °C 5 °C 7.6 °C
Dew Point: 6.3 °C 2.8 °C 4.5 °C
Humidity: 90% 67.3% 81%
Wind Speed: 4km/h 0km/h 0.2km/h
Wind Gust: 16.3km/h - -
Wind- - SE
Pressure: 1032.8 hPa 1028.1 hPa -
Precipitation: 0.0 mm    
Historical Graphs
 
 
Tabular Data for September 22, 2020
Time Temperature Dew Point Pressure Wind Wind Speed Wind Gust Humidity Rainfall Rate (Hourly) solar
00:04 6.3 °C 3.5 °C 1028.5 hPa Calm     82.1% 0.0 mm 0 W/m2
00:09 6.3 °C 3.5 °C 1028.5 hPa Calm     82% 0.0 mm 0 W/m2
00:14 6.4 °C 3.6 °C 1028.5 hPa Calm     82% 0.0 mm 0 W/m2
00:19 6.3 °C 3.5 °C 1028.5 hPa Calm     82% 0.0 mm 0 W/m2
00:24 6.3 °C 3.5 °C 1028.5 hPa Calm     82.3% 0.0 mm 0 W/m2
00:29 6.2 °C 3.5 °C 1028.1 hPa Calm     83% 0.0 mm 0 W/m2
00:34 6.1 °C 3.6 °C 1028.1 hPa Calm   4 km/h 84% 0.0 mm 0 W/m2
00:39 6.1 °C 3.6 °C 1028.5 hPa Calm   4 km/h 84% 0.0 mm 0 W/m2
00:44 6.1 °C 3.6 °C 1028.5 hPa Calm   4 km/h 84% 0.0 mm 0 W/m2
00:49 5.9 °C 3.4 °C 1028.5 hPa Calm     84% 0.0 mm 0 W/m2
00:54 5.7 °C 3.4 °C 1028.5 hPa Calm     84.9% 0.0 mm 0 W/m2
00:59 5.7 °C 3.4 °C 1028.5 hPa Calm     84.9% 0.0 mm 0 W/m2
01:04 5.7 °C 3.3 °C 1028.5 hPa Calm     84.3% 0.0 mm 0 W/m2
01:09 5.7 °C 3.2 °C 1028.5 hPa Calm     84% 0.0 mm 0 W/m2
01:14 5.8 °C 3.3 °C 1028.5 hPa Calm     84% 0.0 mm 0 W/m2
01:19 5.8 °C 3.3 °C 1028.5 hPa Calm     84% 0.0 mm 0 W/m2
01:24 5.8 °C 3.3 °C 1028.5 hPa Calm     84% 0.0 mm 0 W/m2
01:29 5.7 °C 3.3 °C 1028.5 hPa Calm     84.4% 0.0 mm 0 W/m2
01:34 5.6 °C 3.3 °C 1028.5 hPa Calm     85% 0.0 mm 0 W/m2
01:39 5.6 °C 3.1 °C 1028.5 hPa Calm     84.2% 0.0 mm 0 W/m2
01:44 5.6 °C 3.1 °C 1028.5 hPa Calm     84.1% 0.0 mm 0 W/m2
01:49 5.5 °C 3.1 °C 1028.5 hPa Calm     85% 0.0 mm 0 W/m2
01:54 5.2 °C 2.9 °C 1028.5 hPa Calm     85% 0.0 mm 0 W/m2
01:59 5.3 °C 2.8 °C 1028.5 hPa Calm     84.1% 0.0 mm 0 W/m2
02:04 5.3 °C 3 °C 1028.5 hPa Calm     84.8% 0.0 mm 0 W/m2
02:09 5.3 °C 3.1 °C 1028.5 hPa Calm     85.6% 0.0 mm 0 W/m2
02:14 5.2 °C 2.9 °C 1028.5 hPa Calm     85% 0.0 mm 0 W/m2
02:19 5.2 °C 3 °C 1028.8 hPa Calm     85.7% 0.0 mm 0 W/m2
02:24 5.2 °C 3.1 °C 1028.5 hPa NNW 0.2 km/h 4 km/h 85.9% 0.0 mm 0 W/m2
02:29 5.3 °C 2.8 °C 1028.8 hPa Calm   4 km/h 84.2% 0.0 mm 0 W/m2
02:34 5.4 °C 2.9 °C 1028.8 hPa Calm     84.1% 0.0 mm 0 W/m2
02:39 5.4 °C 3.1 °C 1028.8 hPa Calm     84.8% 0.0 mm 0 W/m2
02:44 5.4 °C 2.9 °C 1028.8 hPa Calm     84% 0.0 mm 0 W/m2
02:49 5.3 °C 2.9 °C 1028.8 hPa Calm     84.8% 0.0 mm 0 W/m2
02:54 5 °C 2.8 °C 1028.8 hPa Calm     85.7% 0.0 mm 0 W/m2
02:59 5 °C 2.9 °C 1028.8 hPa Calm     86.2% 0.0 mm 0 W/m2
03:04 5 °C 2.9 °C 1028.8 hPa Calm     86.6% 0.0 mm 0 W/m2
03:09 5 °C 2.8 °C 1028.8 hPa Calm     85.2% 0.0 mm 0 W/m2
03:14 5.3 °C 2.8 °C 1029.1 hPa Calm     84.2% 0.0 mm 0 W/m2
03:19 5.3 °C 2.8 °C 1028.8 hPa Calm     84% 0.0 mm 0 W/m2
03:24 5.3 °C 2.8 °C 1028.8 hPa Calm     84% 0.0 mm 0 W/m2
03:29 5.4 °C 2.9 °C 1029.1 hPa Calm     84% 0.0 mm 0 W/m2
03:34 5.7 °C 3.2 °C 1029.1 hPa Calm     84% 0.0 mm 0 W/m2
03:39 5.7 °C 3.1 °C 1028.8 hPa Calm     83.4% 0.0 mm 0 W/m2
03:44 5.7 °C 3.2 °C 1028.8 hPa Calm     84% 0.0 mm 0 W/m2
03:49 5.7 °C 3.3 °C 1028.8 hPa Calm     84.4% 0.0 mm 0 W/m2
03:54 5.5 °C 3.2 °C 1028.8 hPa Calm     85% 0.0 mm 0 W/m2
03:59 5.4 °C 3.2 °C 1028.8 hPa Calm     85.8% 0.0 mm 0 W/m2
04:04 5.4 °C 3.1 °C 1028.8 hPa Calm     85% 0.0 mm 0 W/m2
04:09 5.5 °C 3.2 °C 1028.8 hPa Calm     85% 0.0 mm 0 W/m2
04:14 5.6 °C 3.3 °C 1028.5 hPa Calm     85% 0.0 mm 0 W/m2
04:19 5.5 °C 3.3 °C 1028.8 hPa North 1.6 km/h 7.9 km/h 85.7% 0.0 mm 0 W/m2
04:24 5.6 °C 3.3 °C 1028.8 hPa Calm     85.3% 0.0 mm 0 W/m2
04:29 5.6 °C 3.4 °C 1028.8 hPa Calm     86% 0.0 mm 0 W/m2
04:34 5.5 °C 3.3 °C 1028.8 hPa Calm     86% 0.0 mm 0 W/m2
04:39 5.5 °C 3.3 °C 1028.8 hPa Calm     86% 0.0 mm 0 W/m2
04:44 5.5 °C 3.4 °C 1029.1 hPa Calm     86.4% 0.0 mm 0 W/m2
04:49 5.4 °C 3.4 °C 1029.1 hPa Calm     87.2% 0.0 mm 0 W/m2
04:54 5.4 °C 3.4 °C 1029.1 hPa Calm     87% 0.0 mm 0 W/m2
04:59 5.4 °C 3.3 °C 1029.1 hPa Calm     86.4% 0.0 mm 0 W/m2
05:04 5.4 °C 3.4 °C 1029.1 hPa Calm     86.8% 0.0 mm 0 W/m2
05:09 5.5 °C 3.5 °C 1029.1 hPa Calm     87% 0.0 mm 0 W/m2
05:14 5.3 °C 3.5 °C 1029.1 hPa Calm     88% 0.0 mm 0 W/m2
05:19 5.3 °C 3.6 °C 1029.1 hPa Calm     88.6% 0.0 mm 0 W/m2
05:24 5.3 °C 3.6 °C 1029.5 hPa Calm     89% 0.0 mm 0 W/m2
05:29 5.3 °C 3.5 °C 1029.5 hPa Calm     88.4% 0.0 mm 0 W/m2
05:34 5.2 °C 3.5 °C 1029.5 hPa Calm     88.9% 0.0 mm 0 W/m2
05:39 5.2 °C 3.5 °C 1029.5 hPa Calm     88.6% 0.0 mm 0 W/m2
05:44 5.2 °C 3.4 °C 1029.5 hPa Calm     88% 0.0 mm 0 W/m2
05:49 5.2 °C 3.4 °C 1029.8 hPa Calm     88% 0.0 mm 0 W/m2
05:54 5.3 °C 3.6 °C 1029.8 hPa Calm     88.9% 0.0 mm 0 W/m2
05:59 5.3 °C 3.6 °C 1029.8 hPa Calm     89% 0.0 mm 0 W/m2
06:04 5.3 °C 3.6 °C 1030.1 hPa Calm     89% 0.0 mm 0 W/m2
06:09 5.3 °C 3.7 °C 1030.1 hPa Calm     89.4% 0.0 mm 0 W/m2
06:14 5.4 °C 3.7 °C 1030.1 hPa Calm     89% 0.0 mm 0 W/m2
06:19 5.3 °C 3.8 °C 1030.1 hPa Calm     90% 0.0 mm 0 W/m2
06:24 5.3 °C 3.6 °C 1030.1 hPa Calm     88.7% 0.0 mm 0 W/m2
06:29 5.4 °C 3.7 °C 1030.5 hPa Calm     89% 0.0 mm 0 W/m2
06:34 5.5 °C 4 °C 1030.5 hPa Calm     90% 0.0 mm 0 W/m2
06:39 5.5 °C 4 °C 1030.8 hPa Calm     90% 0.0 mm 0 W/m2
06:44 5.5 °C 4 °C 1030.8 hPa Calm     90% 0.0 mm 0 W/m2
06:49 5.5 °C 4 °C 1030.8 hPa Calm     90% 0.0 mm 0 W/m2
06:54 5.7 °C 4 °C 1030.8 hPa Calm     89.4% 0.0 mm 0 W/m2
06:59 5.7 °C 3.8 °C 1030.8 hPa Calm     87.7% 0.0 mm 0 W/m2
07:04 5.8 °C 3.7 °C 1030.8 hPa Calm     86.3% 0.0 mm 0 W/m2
07:09 6 °C 3.9 °C 1030.8 hPa Calm     86.4% 0.0 mm 0 W/m2
07:14 6 °C 4.2 °C 1030.8 hPa Calm     88.4% 0.0 mm 0 W/m2
07:19 5.9 °C 4.2 °C 1030.8 hPa Calm     89% 0.0 mm 0 W/m2
07:24 6 °C 4.1 °C 1030.8 hPa Calm     87.5% 0.0 mm 0 W/m2
07:29 6 °C 4.1 °C 1030.8 hPa Calm     87.6% 0.0 mm 0 W/m2
07:34 6.2 °C 4.3 °C 1030.8 hPa Calm     87.6% 0.0 mm 2 W/m2
07:39 6.2 °C 4.4 °C 1030.8 hPa Calm     87.8% 0.0 mm 3 W/m2
07:44 6.2 °C 4.4 °C 1030.8 hPa Calm     88.3% 0.0 mm 5 W/m2
07:49 6.2 °C 4.4 °C 1031.2 hPa Calm     88.4% 0.0 mm 6 W/m2
07:54 6.5 °C 4.3 °C 1031.2 hPa Calm     86.2% 0.0 mm 9 W/m2
07:59 6.5 °C 4.3 °C 1031.2 hPa Calm     85.8% 0.0 mm 11 W/m2
08:04 6.6 °C 4.1 °C 1031.2 hPa Calm     84.2% 0.0 mm 14 W/m2
08:09 6.6 °C 4.7 °C 1031.5 hPa Calm     88% 0.0 mm 19 W/m2
08:14 6.4 °C 4.6 °C 1031.5 hPa Calm     88.2% 0.0 mm 21 W/m2
08:19 6.3 °C 4.5 °C 1031.5 hPa Calm     88.4% 0.0 mm 24 W/m2
08:24 6.3 °C 4.5 °C 1031.5 hPa Calm     88% 0.0 mm 28 W/m2
08:29 6.3 °C 4.5 °C 1031.8 hPa Calm     88% 0.0 mm 32 W/m2
08:34 6.4 °C 4.5 °C 1031.8 hPa Calm     87.6% 0.0 mm 38 W/m2
08:39 6.5 °C 4.5 °C 1031.8 hPa Calm     87% 0.0 mm 43 W/m2
08:44 6.5 °C 4.3 °C 1031.8 hPa Calm     85.8% 0.0 mm 46 W/m2
08:49 6.6 °C 4.2 °C 1031.8 hPa Calm     84.6% 0.0 mm 47 W/m2
08:54 6.9 °C 4.7 °C 1031.8 hPa Calm     85.7% 0.0 mm 50 W/m2
08:59 7 °C 5 °C 1031.8 hPa Calm     86.7% 0.0 mm 59 W/m2
09:04 7.1 °C 5.1 °C 1031.8 hPa Calm     87% 0.0 mm 66 W/m2
09:09 7.1 °C 5.1 °C 1032.2 hPa Calm     87% 0.0 mm 66 W/m2
09:14 7.2 °C 5.1 °C 1031.8 hPa Calm     86.8% 0.0 mm 66 W/m2
09:19 7.2 °C 5 °C 1032.2 hPa Calm     86.1% 0.0 mm 61 W/m2
09:24 7.2 °C 5 °C 1032.2 hPa Calm     86% 0.0 mm 68 W/m2
09:29 7.2 °C 4.9 °C 1032.2 hPa Calm     85.6% 0.0 mm 72 W/m2
09:34 7.5 °C 5.1 °C 1032.2 hPa Calm     85% 0.0 mm 82 W/m2
09:39 7.7 °C 5.3 °C 1032.2 hPa Calm     84.9% 0.0 mm 86 W/m2
09:44 7.7 °C 5.2 °C 1032.2 hPa Calm     84.1% 0.0 mm 92 W/m2
09:49 7.7 °C 5.2 °C 1032.2 hPa Calm     84% 0.0 mm 98 W/m2
09:54 7.8 °C 5.2 °C 1032.2 hPa Calm     83.2% 0.0 mm 101 W/m2
09:59 7.9 °C 5.2 °C 1032.5 hPa Calm     83% 0.0 mm 102 W/m2
10:04 7.8 °C 5.1 °C 1032.5 hPa Calm     83% 0.0 mm 102 W/m2
10:09 7.8 °C 4.9 °C 1032.5 hPa Calm   4 km/h 82.1% 0.0 mm 113 W/m2
10:14 7.9 °C 5 °C 1032.5 hPa Calm   4 km/h 82% 0.0 mm 116 W/m2
10:19 8 °C 5 °C 1032.5 hPa Calm     81.7% 0.0 mm 115 W/m2
10:24 8 °C 4.9 °C 1032.5 hPa Calm     81% 0.0 mm 120 W/m2
10:29 8.1 °C 5 °C 1032.8 hPa Calm     81% 0.0 mm 121 W/m2
10:34 8.2 °C 5.2 °C 1032.5 hPa ESE 0.2 km/h 7.9 km/h 81.6% 0.0 mm 131 W/m2
10:39 8.2 °C 5.1 °C 1032.5 hPa Calm     81% 0.0 mm 133 W/m2
10:44 8.2 °C 5 °C 1032.5 hPa Calm     80% 0.0 mm 131 W/m2
10:49 8.3 °C 5.1 °C 1032.5 hPa Calm     79.9% 0.0 mm 139 W/m2
10:54 8.7 °C 5.3 °C 1032.5 hPa Calm     79% 0.0 mm 144 W/m2
10:59 9.2 °C 5.6 °C 1032.5 hPa SE 0.1 km/h 4 km/h 78% 0.0 mm 152 W/m2
11:04 9.2 °C 5.6 °C 1032.5 hPa Calm     78% 0.0 mm 157 W/m2
11:09 9.3 °C 5.5 °C 1032.2 hPa Calm     77.2% 0.0 mm 166 W/m2
11:14 9.7 °C 5.7 °C 1032.2 hPa Calm     76.2% 0.0 mm 164 W/m2
11:19 10 °C 6 °C 1032.2 hPa Calm     76% 0.0 mm 162 W/m2
11:24 10 °C 6 °C 1032.2 hPa ENE 0.7 km/h 7.9 km/h 76.2% 0.0 mm 162 W/m2
11:29 9.9 °C 6.1 °C 1032.2 hPa Calm   7.9 km/h 77.1% 0.0 mm 154 W/m2
11:34 10.2 °C 5.8 °C 1031.8 hPa SE 0.6 km/h 4 km/h 73.8% 0.0 mm 138 W/m2
11:39 10.7 °C 5.7 °C 1031.8 hPa Calm   4 km/h 70.7% 0.0 mm 122 W/m2
11:44 10.8 °C 6.1 °C 1031.8 hPa Calm   4 km/h 72.6% 0.0 mm 95 W/m2
11:49 10.8 °C 5.7 °C 1031.8 hPa SE 1.9 km/h 7.9 km/h 70.6% 0.0 mm 87 W/m2
11:54 11 °C 5.5 °C 1031.8 hPa SSE 1.2 km/h 7.9 km/h 69.1% 0.0 mm 110 W/m2
11:59 11.2 °C 6.1 °C 1031.8 hPa East 2.2 km/h 12.2 km/h 71% 0.0 mm 165 W/m2
12:04 11.2 °C 5.9 °C 1031.5 hPa SE 0.6 km/h 12.2 km/h 69.9% 0.0 mm 183 W/m2
12:09 11.1 °C 5.7 °C 1031.8 hPa SSE 4 km/h 16.3 km/h 69.7% 0.0 mm 190 W/m2
12:14 11.1 °C 5.7 °C 1031.8 hPa SE 4 km/h 12.2 km/h 69.9% 0.0 mm 202 W/m2
12:19 10.9 °C 5.6 °C 1031.5 hPa SE 3 km/h 16.3 km/h 70% 0.0 mm 213 W/m2
12:24 10.9 °C 5.6 °C 1031.5 hPa ESE 1.4 km/h 7.9 km/h 69.9% 0.0 mm 225 W/m2
12:29 10.9 °C 5.6 °C 1031.5 hPa SE 1.1 km/h 16.3 km/h 69.8% 0.0 mm 234 W/m2
12:34 11 °C 5.7 °C 1031.5 hPa ESE 2.4 km/h 12.2 km/h 70% 0.0 mm 245 W/m2
12:39 10.9 °C 5.6 °C 1031.5 hPa SE 0.4 km/h 12.2 km/h 70% 0.0 mm 261 W/m2
12:44 11 °C 5.4 °C 1031.5 hPa SSE 1.2 km/h 12.2 km/h 68.4% 0.0 mm 275 W/m2
12:49 11.2 °C 5.4 °C 1031.2 hPa SSE 0.1 km/h 7.9 km/h 67.6% 0.0 mm 286 W/m2
12:54 11.2 °C 5.5 °C 1031.2 hPa SE 3.2 km/h 12.2 km/h 67.9% 0.0 mm 293 W/m2
12:59 11 °C 5.7 °C 1031.2 hPa SSE 1.3 km/h 12.2 km/h 69.8% 0.0 mm 298 W/m2
13:04 11.1 °C 5.7 °C 1031.2 hPa ESE 1.3 km/h 12.2 km/h 69.3% 0.0 mm 302 W/m2
13:09 11.2 °C 5.5 °C 1031.2 hPa South 0.6 km/h 7.9 km/h 68.2% 0.0 mm 306 W/m2
13:14 11.3 °C 5.6 °C 1031.2 hPa South 0.7 km/h 7.9 km/h 68.2% 0.0 mm 310 W/m2
13:19 11.4 °C 5.8 °C 1031.2 hPa SSE 2.5 km/h 16.3 km/h 68.8% 0.0 mm 313 W/m2
13:24 11.4 °C 5.8 °C 1030.8 hPa SE 0.6 km/h 7.9 km/h 68.2% 0.0 mm 314 W/m2
13:29 11.4 °C 5.8 °C 1030.8 hPa ESE 2.2 km/h 7.9 km/h 68.6% 0.0 mm 318 W/m2
13:34 11.4 °C 5.7 °C 1030.8 hPa Calm   7.9 km/h 67.9% 0.0 mm 320 W/m2
13:39 11.9 °C 6.1 °C 1030.8 hPa ESE 1 km/h 12.2 km/h 67.4% 0.0 mm 319 W/m2
13:44 11.9 °C 6.2 °C 1030.8 hPa SSE 2.1 km/h 12.2 km/h 67.8% 0.0 mm 321 W/m2
13:49 11.8 °C 6.2 °C 1031.2 hPa ESE 0.1 km/h 7.9 km/h 68.3% 0.0 mm 315 W/m2
13:54 11.7 °C 6.2 °C 1030.8 hPa ENE 0.2 km/h 7.9 km/h 69% 0.0 mm 316 W/m2
13:59 11.6 °C 5.9 °C 1030.8 hPa Calm     68.3% 0.0 mm 318 W/m2
14:04 11.4 °C 5.9 °C 1030.5 hPa Calm   12.2 km/h 69% 0.0 mm 314 W/m2
14:09 11.4 °C 6 °C 1030.8 hPa ENE 1.1 km/h 12.2 km/h 69.4% 0.0 mm 309 W/m2
14:14 11.3 °C 5.9 °C 1030.8 hPa SE 0.2 km/h 7.9 km/h 69.1% 0.0 mm 308 W/m2
14:19 11.8 °C 6.2 °C 1030.8 hPa Calm   7.9 km/h 68.1% 0.0 mm 309 W/m2
14:24 11.8 °C 6.2 °C 1030.5 hPa Calm   4 km/h 68.5% 0.0 mm 304 W/m2
14:29 11.8 °C 6.3 °C 1030.5 hPa SE 0.8 km/h 7.9 km/h 69% 0.0 mm 301 W/m2
14:34 11.7 °C 6.2 °C 1030.1 hPa SE 0.5 km/h 7.9 km/h 68.8% 0.0 mm 296 W/m2
14:39 11 °C 5.6 °C 1030.1 hPa SE 1.5 km/h 12.2 km/h 69.4% 0.0 mm 291 W/m2
14:44 11 °C 5.6 °C 1030.5 hPa NNE 0.5 km/h 7.9 km/h 69.3% 0.0 mm 288 W/m2
14:49 11.1 °C 5.6 °C 1030.1 hPa ENE 0.3 km/h 4 km/h 69% 0.0 mm 287 W/m2
14:54 11.2 °C 5.5 °C 1030.1 hPa South 0.1 km/h 12.2 km/h 68.2% 0.0 mm 285 W/m2
14:57 12 °C 6.2 °C 1030.1 hPa Calm   7.9 km/h 67.5% 0.0 mm 270 W/m2
15:04 12 °C 6.3 °C 1030.1 hPa SE 1.7 km/h 7.9 km/h 67.8% 0.0 mm 265 W/m2
15:09 11.9 °C 6.3 °C 1030.1 hPa Calm   7.9 km/h 68.6% 0.0 mm 259 W/m2
15:14 11.9 °C 6.1 °C 1030.1 hPa Calm     67.5% 0.0 mm 247 W/m2
15:19 11.8 °C 5.9 °C 1030.1 hPa ESE 1.8 km/h   67.3% 0.0 mm 240 W/m2
15:24 11.7 °C 6.1 °C 1029.8 hPa Calm   7.9 km/h 68.4% 0.0 mm 236 W/m2
15:29 11.6 °C 6.1 °C 1029.8 hPa Calm     69% 0.0 mm 218 W/m2
15:34 11.5 °C 6.3 °C 1029.8 hPa Calm     70.3% 0.0 mm 126 W/m2
15:39 10.4 °C 5.6 °C 1029.8 hPa Calm     71.8% 0.0 mm 137 W/m2
15:44 10.4 °C 5.6 °C 1029.8 hPa Calm     72% 0.0 mm 46 W/m2
15:49 10.4 °C 5.7 °C 1030.1 hPa Calm     72.4% 0.0 mm 43 W/m2
15:54 10.3 °C 5.7 °C 1030.1 hPa Calm     73% 0.0 mm 40 W/m2
15:59 10 °C 5.6 °C 1029.8 hPa Calm   4 km/h 73.9% 0.0 mm 37 W/m2
16:04 9.9 °C 5.5 °C 1029.8 hPa Calm     74% 0.0 mm 34 W/m2
16:09 9.9 °C 5.7 °C 1029.8 hPa Calm     74.9% 0.0 mm 32 W/m2
16:14 9.8 °C 5.7 °C 1029.8 hPa Calm     75.7% 0.0 mm 31 W/m2
16:19 9.3 °C 5.4 °C 1029.8 hPa Calm     76.5% 0.0 mm 28 W/m2
16:24 9.1 °C 5.3 °C 1029.8 hPa Calm     77% 0.0 mm 27 W/m2
16:29 9.1 °C 5.3 °C 1029.8 hPa Calm     77.1% 0.0 mm 25 W/m2
16:33 9 °C 5.4 °C 1029.8 hPa Calm     78% 0.0 mm 23 W/m2
16:39 8.9 °C 5.2 °C 1029.8 hPa Calm     77.1% 0.0 mm 20 W/m2
16:44 8.8 °C 5.2 °C 1029.8 hPa Calm     77.9% 0.0 mm 17 W/m2
16:49 8.8 °C 5.2 °C 1029.8 hPa Calm     78% 0.0 mm 13 W/m2
16:54 8.8 °C 5.3 °C 1029.8 hPa Calm     78.4% 0.0 mm 10 W/m2
16:59 8.4 °C 5 °C 1029.8 hPa Calm     79% 0.0 mm 6 W/m2
17:04 8.3 °C 5.1 °C 1029.8 hPa Calm     79.8% 0.0 mm 4 W/m2
17:09 8.3 °C 5.1 °C 1029.8 hPa Calm     80% 0.0 mm 0 W/m2
17:14 8.2 °C 5 °C 1029.8 hPa Calm     80% 0.0 mm 0 W/m2
17:19 8 °C 4.8 °C 1030.1 hPa Calm     80% 0.0 mm 0 W/m2
17:24 7.8 °C 4.7 °C 1029.8 hPa Calm     81% 0.0 mm 0 W/m2
17:29 7.8 °C 4.7 °C 1030.1 hPa Calm     81% 0.0 mm 0 W/m2
17:34 7.8 °C 4.7 °C 1030.1 hPa Calm     81% 0.0 mm 0 W/m2
17:39 7.6 °C 4.6 °C 1029.8 hPa Calm     81.7% 0.0 mm 0 W/m2
17:43 7.5 °C 4.6 °C 1030.1 hPa Calm     82% 0.0 mm 0 W/m2
17:49 7.5 °C 4.6 °C 1030.1 hPa Calm     82% 0.0 mm 0 W/m2
17:54 7.5 °C 4.6 °C 1030.1 hPa Calm     82% 0.0 mm 0 W/m2
17:59 7.5 °C 4.6 °C 1030.1 hPa Calm     82% 0.0 mm 0 W/m2
18:04 7.5 °C 4.6 °C 1030.1 hPa Calm     82% 0.0 mm 0 W/m2
18:09 7.5 °C 4.6 °C 1030.1 hPa Calm     82% 0.0 mm 0 W/m2
18:14 7.5 °C 4.6 °C 1030.1 hPa Calm     82.2% 0.0 mm 0 W/m2
18:19 7.4 °C 4.7 °C 1030.1 hPa Calm     83% 0.0 mm 0 W/m2
18:24 7.4 °C 4.7 °C 1030.1 hPa Calm     82.8% 0.0 mm 0 W/m2
18:29 7.5 °C 4.6 °C 1030.1 hPa Calm     81.7% 0.0 mm 0 W/m2
18:34 7.5 °C 4.5 °C 1030.1 hPa Calm     81% 0.0 mm 0 W/m2
18:39 7.6 °C 4.5 °C 1030.1 hPa Calm     80.3% 0.0 mm 0 W/m2
18:44 7.7 °C 4.5 °C 1030.1 hPa Calm     80% 0.0 mm 0 W/m2
18:49 7.7 °C 4.5 °C 1030.1 hPa Calm     80.1% 0.0 mm 0 W/m2
18:54 7.6 °C 4.5 °C 1030.1 hPa Calm     80.8% 0.0 mm 0 W/m2
18:59 7.8 °C 4.6 °C 1030.1 hPa Calm     80% 0.0 mm 0 W/m2
19:04 7.8 °C 4.7 °C 1030.1 hPa Calm     81% 0.0 mm 0 W/m2
19:09 7.8 °C 4.7 °C 1030.1 hPa Calm     81% 0.0 mm 0 W/m2
19:14 7.7 °C 4.7 °C 1030.1 hPa Calm     81.6% 0.0 mm 0 W/m2
19:19 7.7 °C 4.7 °C 1030.1 hPa Calm     81.4% 0.0 mm 0 W/m2
19:24 7.7 °C 4.7 °C 1030.1 hPa Calm     81.9% 0.0 mm 0 W/m2
19:29 7.7 °C 4.8 °C 1030.1 hPa Calm     82% 0.0 mm 0 W/m2
19:34 7.7 °C 4.8 °C 1030.1 hPa Calm     82.1% 0.0 mm 0 W/m2
19:39 7.6 °C 4.7 °C 1030.1 hPa Calm     82.1% 0.0 mm 0 W/m2
19:44 7.6 °C 4.8 °C 1030.1 hPa Calm     82.6% 0.0 mm 0 W/m2
19:49 7.5 °C 4.7 °C 1030.1 hPa Calm     82.7% 0.0 mm 0 W/m2
19:54 7.6 °C 4.7 °C 1030.1 hPa Calm     82% 0.0 mm 0 W/m2
19:59 7.7 °C 4.7 °C 1030.1 hPa Calm     82% 0.0 mm 0 W/m2
20:04 7.6 °C 4.7 °C 1030.5 hPa Calm     82% 0.0 mm 0 W/m2
20:09 7.6 °C 4.6 °C 1030.5 hPa Calm     81.7% 0.0 mm 0 W/m2
20:14 7.6 °C 4.7 °C 1030.1 hPa Calm     82% 0.0 mm 0 W/m2
20:19 7.6 °C 4.7 °C 1030.1 hPa Calm     82% 0.0 mm 0 W/m2
20:24 7.5 °C 4.6 °C 1030.1 hPa Calm     81.9% 0.0 mm 0 W/m2
20:29 7.5 °C 4.6 °C 1030.1 hPa Calm     81.7% 0.0 mm 0 W/m2
20:34 7.5 °C 4.5 °C 1030.1 hPa Calm     81.4% 0.0 mm 0 W/m2
20:39 7.6 °C 4.5 °C 1030.5 hPa Calm     81% 0.0 mm 0 W/m2
20:44 7.6 °C 4.6 °C 1030.1 hPa Calm     81.6% 0.0 mm 0 W/m2
20:49 7.6 °C 4.5 °C 1030.5 hPa Calm     81.1% 0.0 mm 0 W/m2
20:54 7.6 °C 4.6 °C 1030.5 hPa Calm     81.6% 0.0 mm 0 W/m2
20:59 7.6 °C 4.5 °C 1030.5 hPa Calm     81.1% 0.0 mm 0 W/m2
21:04 7.6 °C 4.5 °C 1030.5 hPa Calm     81.1% 0.0 mm 0 W/m2
21:09 7.6 °C 4.5 °C 1030.1 hPa Calm     81% 0.0 mm 0 W/m2
21:14 7.6 °C 4.5 °C 1030.5 hPa Calm     81.1% 0.0 mm 0 W/m2
21:19 7.5 °C 4.6 °C 1030.5 hPa Calm     82% 0.0 mm 0 W/m2
21:24 7.4 °C 4.5 °C 1030.8 hPa Calm     81.6% 0.0 mm 0 W/m2
21:29 7.4 °C 4.5 °C 1030.8 hPa Calm     82% 0.0 mm 0 W/m2
21:34 7.4 °C 4.5 °C 1030.5 hPa Calm   4 km/h 82% 0.0 mm 0 W/m2
21:39 7.4 °C 4.5 °C 1030.5 hPa Calm     81.8% 0.0 mm 0 W/m2
21:44 7.5 °C 4.6 °C 1030.8 hPa Calm     81.9% 0.0 mm 0 W/m2
21:49 7.5 °C 4.6 °C 1030.5 hPa Calm     82% 0.0 mm 0 W/m2
21:54 7.5 °C 4.6 °C 1030.5 hPa Calm     82% 0.0 mm 0 W/m2
21:59 7.4 °C 4.5 °C 1030.8 hPa Calm     82% 0.0 mm 0 W/m2
22:04 7.4 °C 4.5 °C 1030.8 hPa Calm     81.9% 0.0 mm 0 W/m2
22:09 7.4 °C 4.5 °C 1030.5 hPa Calm     82% 0.0 mm 0 W/m2
22:14 7.4 °C 4.4 °C 1030.8 hPa Calm     81.4% 0.0 mm 0 W/m2
22:19 7.4 °C 4.4 °C 1030.5 hPa Calm     81.1% 0.0 mm 0 W/m2
22:24 7.3 °C 4.7 °C 1030.8 hPa Calm     83.4% 0.0 mm 0 W/m2
22:29 7.2 °C 4.7 °C 1030.5 hPa Calm     84% 0.0 mm 0 W/m2
22:34 7.1 °C 4.6 °C 1030.8 hPa Calm     84% 0.0 mm 0 W/m2
22:39 7 °C 4.3 °C 1030.5 hPa Calm     83.3% 0.0 mm 0 W/m2
22:44 6.7 °C 4.2 °C 1030.5 hPa Calm     84% 0.0 mm 0 W/m2
22:49 6.8 °C 4.2 °C 1030.5 hPa Calm     83.6% 0.0 mm 0 W/m2
22:54 6.8 °C 4.1 °C 1030.5 hPa Calm     83.2% 0.0 mm 0 W/m2
22:59 6.8 °C 4.1 °C 1030.8 hPa Calm     83% 0.0 mm 0 W/m2
23:04 6.9 °C 4.2 °C 1030.8 hPa Calm     83% 0.0 mm 0 W/m2
23:09 6.8 °C 4.3 °C 1030.5 hPa Calm     83.9% 0.0 mm 0 W/m2
23:14 6.8 °C 4.3 °C 1030.5 hPa Calm     84% 0.0 mm 0 W/m2
23:19 6.7 °C 4.2 °C 1030.5 hPa Calm     84% 0.0 mm 0 W/m2
23:24 6.6 °C 4.1 °C 1030.5 hPa Calm     84% 0.0 mm 0 W/m2
23:29 6.6 °C 4.1 °C 1030.1 hPa Calm     84% 0.0 mm 0 W/m2
23:34 6.6 °C 4.1 °C 1030.1 hPa Calm     84% 0.0 mm 0 W/m2
23:39 6.6 °C 4.1 °C 1030.1 hPa Calm     84% 0.0 mm 0 W/m2
23:44 6.7 °C 4.2 °C 1030.5 hPa Calm     83.8% 0.0 mm 0 W/m2
23:49 6.7 °C 4.2 °C 1030.5 hPa Calm     84% 0.0 mm 0 W/m2
23:54 6.7 °C 4 °C 1030.5 hPa Calm     83.2% 0.0 mm 0 W/m2
23:59 6.7 °C 4.2 °C 1030.1 hPa Calm     83.8% 0.0 mm 0 W/m2
Juneau County Weather
Compliments of Weather Underground - 2 mb